createdAt,value
2023-02-28T00:00:20.230Z,55.50
2023-02-28T00:02:47.189Z,55.72
2023-02-28T00:05:16.980Z,55.50
2023-02-28T00:07:44.057Z,55.25
2023-02-28T00:10:13.880Z,56.30
2023-02-28T00:12:41.067Z,56.71
2023-02-28T00:15:10.810Z,55.90
2023-02-28T00:17:38.783Z,55.32
2023-02-28T00:20:10.976Z,56.71
2023-02-28T00:22:39.311Z,56.84
2023-02-28T00:25:07.946Z,56.84
2023-02-28T00:27:36.366Z,56.80
2023-02-28T00:30:06.322Z,56.89
2023-02-28T00:32:33.557Z,56.37
2023-02-28T00:35:02.591Z,56.19
2023-02-28T00:37:29.204Z,57.21
2023-02-28T00:39:56.650Z,56.56
2023-02-28T00:42:23.853Z,56.74
2023-02-28T00:44:50.464Z,57.23
2023-02-28T00:47:17.160Z,57.96
2023-02-28T00:49:43.986Z,57.45
2023-02-28T00:52:10.666Z,55.68
2023-02-28T00:54:37.254Z,57.49
2023-02-28T00:57:04.071Z,57.15
2023-02-28T00:59:32.030Z,57.62
2023-02-28T01:01:59.078Z,58.31
2023-02-28T01:04:25.777Z,57.57
2023-02-28T01:06:52.951Z,57.64
2023-02-28T01:09:19.594Z,57.87
2023-02-28T01:11:46.711Z,57.94
2023-02-28T01:14:15.150Z,57.47
2023-02-28T01:16:42.177Z,57.59
2023-02-28T01:19:09.028Z,57.15
2023-02-28T01:21:36.013Z,57.35
2023-02-28T01:24:03.651Z,56.63
2023-02-28T01:26:30.831Z,57.19
2023-02-28T01:28:57.442Z,56.85
2023-02-28T01:31:26.239Z,58.34
2023-02-28T01:33:52.944Z,57.14
2023-02-28T01:36:24.666Z,58.86
2023-02-28T01:38:52.346Z,59.97
2023-02-28T01:41:33.148Z,59.54
2023-02-28T01:44:05.567Z,59.48
2023-02-28T01:46:35.415Z,58.63
2023-02-28T01:49:09.812Z,59.10
2023-02-28T01:51:46.640Z,59.06
2023-02-28T01:54:23.546Z,58.56
2023-02-28T01:56:56.004Z,58.85
2023-02-28T01:59:53.380Z,58.94
2023-02-28T02:02:22.483Z,60.18
2023-02-28T02:05:02.645Z,60.33
2023-02-28T02:07:34.593Z,59.40
2023-02-28T02:10:04.284Z,60.56
2023-02-28T02:13:03.269Z,59.63
2023-02-28T02:15:50.110Z,59.54
2023-02-28T02:18:35.657Z,59.23
2023-02-28T02:21:30.164Z,60.27
2023-02-28T02:24:21.750Z,60.83
2023-02-28T02:27:14.505Z,61.13
2023-02-28T02:30:05.544Z,59.37
2023-02-28T02:33:06.865Z,58.86
2023-02-28T02:36:01.470Z,58.29
2023-02-28T02:38:43.070Z,56.31
2023-02-28T02:41:40.658Z,56.43
2023-02-28T02:44:20.171Z,58.77
2023-02-28T02:46:49.751Z,57.91
2023-02-28T02:49:29.255Z,57.88
2023-02-28T02:51:58.579Z,58.64
2023-02-28T02:54:31.312Z,57.33
2023-02-28T02:57:02.526Z,56.93
2023-02-28T02:59:33.502Z,57.52
2023-02-28T03:02:07.282Z,56.08
2023-02-28T03:04:41.362Z,56.30
2023-02-28T03:07:07.965Z,56.24
2023-02-28T03:09:36.538Z,58.06
2023-02-28T03:12:04.672Z,59.83
2023-02-28T03:14:51.456Z,58.49
2023-02-28T03:17:33.688Z,58.73
2023-02-28T03:20:08.398Z,59.82
2023-02-28T03:22:50.455Z,59.31
2023-02-28T03:25:16.920Z,59.06
2023-02-28T03:28:08.294Z,59.11
2023-02-28T03:30:46.776Z,58.49
2023-02-28T03:33:24.894Z,58.56
2023-02-28T03:35:58.155Z,59.65
2023-02-28T03:38:30.763Z,57.47
2023-02-28T03:41:20.198Z,57.09
2023-02-28T03:44:10.291Z,58.00
2023-02-28T03:46:41.846Z,57.90
2023-02-28T03:49:19.748Z,57.77
2023-02-28T03:51:47.994Z,57.59
2023-02-28T03:54:20.226Z,59.16
2023-02-28T03:57:15.248Z,59.66
2023-02-28T03:59:47.194Z,57.29
2023-02-28T04:02:13.799Z,59.58
2023-02-28T04:04:45.998Z,58.44
2023-02-28T04:07:12.989Z,58.87
2023-02-28T04:09:39.610Z,58.96
2023-02-28T04:12:06.489Z,59.12
2023-02-28T04:14:33.057Z,59.48
2023-02-28T04:16:59.793Z,59.42
2023-02-28T04:19:26.413Z,58.87
2023-02-28T04:21:54.361Z,58.69
2023-02-28T04:24:28.801Z,61.02
2023-02-28T04:26:57.419Z,59.87
2023-02-28T04:29:29.288Z,60.74
2023-02-28T04:32:00.532Z,61.55
2023-02-28T04:34:28.859Z,60.72
2023-02-28T04:37:11.983Z,62.57
2023-02-28T04:39:39.999Z,62.29
2023-02-28T04:42:06.785Z,63.34
2023-02-28T04:44:33.380Z,63.09
2023-02-28T04:47:00.159Z,60.70
2023-02-28T04:49:26.993Z,61.50
2023-02-28T04:51:54.061Z,61.96
2023-02-28T04:54:20.983Z,62.76
2023-02-28T04:56:49.423Z,63.15
2023-02-28T04:59:16.091Z,62.57
2023-02-28T05:01:47.760Z,61.52
2023-02-28T05:04:14.492Z,61.25
2023-02-28T05:06:41.012Z,60.18
2023-02-28T05:09:07.602Z,63.34
2023-02-28T05:11:36.069Z,63.20
2023-02-28T05:14:10.184Z,64.29
2023-02-28T05:16:36.781Z,63.36
2023-02-28T05:19:03.784Z,61.05
2023-02-28T05:21:35.887Z,62.13
2023-02-28T05:24:05.287Z,63.70
2023-02-28T05:26:34.685Z,62.43
2023-02-28T05:29:01.234Z,63.17
2023-02-28T05:31:28.426Z,62.33
2023-02-28T05:33:55.141Z,63.56
2023-02-28T05:36:22.035Z,62.53
2023-02-28T05:38:49.376Z,62.80
2023-02-28T05:41:16.582Z,63.24
2023-02-28T05:43:43.375Z,61.22
2023-02-28T05:46:12.073Z,63.76
2023-02-28T05:48:40.214Z,62.52
2023-02-28T05:51:08.261Z,64.57
2023-02-28T05:53:35.059Z,62.30
2023-02-28T05:56:01.968Z,64.07
2023-02-28T05:58:31.676Z,63.86
2023-02-28T06:00:59.487Z,62.15
2023-02-28T06:03:26.951Z,60.81
2023-02-28T06:05:53.931Z,62.63
2023-02-28T06:08:20.552Z,62.62
2023-02-28T06:10:47.218Z,63.49
2023-02-28T06:13:13.949Z,64.23
2023-02-28T06:15:40.566Z,63.48
2023-02-28T06:18:07.334Z,64.58
2023-02-28T06:20:34.351Z,62.71
2023-02-28T06:23:00.976Z,63.53
2023-02-28T06:25:28.374Z,63.54
2023-02-28T06:27:56.403Z,62.15
2023-02-28T06:30:27.862Z,63.11
2023-02-28T06:32:55.393Z,62.20
2023-02-28T06:35:22.250Z,63.54
2023-02-28T06:37:48.984Z,64.53
2023-02-28T06:40:15.798Z,64.22
2023-02-28T06:42:42.485Z,63.94
2023-02-28T06:45:10.359Z,62.45
2023-02-28T06:47:39.206Z,63.11
2023-02-28T06:50:07.028Z,64.20
2023-02-28T06:52:33.993Z,62.97
2023-02-28T06:55:03.963Z,63.03
2023-02-28T06:57:31.968Z,62.51
2023-02-28T07:00:00.413Z,63.05
2023-02-28T07:02:27.534Z,63.87
2023-02-28T07:04:54.236Z,62.25
2023-02-28T07:07:21.128Z,63.10
2023-02-28T07:09:47.712Z,62.00
2023-02-28T07:12:14.347Z,63.41
2023-02-28T07:14:40.877Z,62.85
2023-02-28T07:17:13.035Z,62.22
2023-02-28T07:19:40.570Z,62.39
2023-02-28T07:22:08.103Z,61.42
2023-02-28T07:24:34.875Z,62.65
2023-02-28T07:27:02.464Z,62.14
2023-02-28T07:29:29.247Z,62.28
2023-02-28T07:31:55.913Z,61.97
2023-02-28T07:34:23.599Z,61.66
2023-02-28T07:36:54.299Z,62.56
2023-02-28T07:39:21.907Z,62.57
2023-02-28T07:41:48.811Z,62.77
2023-02-28T07:44:15.549Z,62.24
2023-02-28T07:46:42.198Z,63.33
2023-02-28T07:49:08.859Z,62.67
2023-02-28T07:51:35.419Z,62.57
2023-02-28T07:54:02.252Z,61.88
2023-02-28T07:56:29.468Z,62.66
2023-02-28T07:58:56.398Z,60.69
2023-02-28T08:01:23.137Z,60.33
2023-02-28T08:03:49.781Z,61.12
2023-02-28T08:06:23.172Z,62.17
2023-02-28T08:08:50.438Z,61.78
2023-02-28T08:11:18.309Z,61.66
2023-02-28T08:13:45.739Z,61.69
2023-02-28T08:16:18.273Z,61.12
2023-02-28T08:18:45.000Z,60.34
2023-02-28T08:21:11.875Z,61.09
2023-02-28T08:23:39.062Z,61.11
2023-02-28T08:26:06.046Z,58.78
2023-02-28T08:28:32.978Z,59.51
2023-02-28T08:31:00.125Z,59.11
2023-02-28T08:33:28.132Z,59.77
2023-02-28T08:35:56.044Z,60.43
2023-02-28T08:38:23.607Z,60.98
2023-02-28T08:40:50.588Z,60.66
2023-02-28T08:43:17.181Z,60.34
2023-02-28T08:45:44.165Z,59.82
2023-02-28T08:48:10.939Z,60.06
2023-02-28T08:50:37.588Z,59.43
2023-02-28T08:53:04.194Z,59.51
2023-02-28T08:55:30.839Z,60.09
2023-02-28T08:57:57.833Z,60.43
2023-02-28T09:00:24.485Z,59.77
2023-02-28T09:02:51.105Z,59.69
2023-02-28T09:05:17.647Z,59.64
2023-02-28T09:07:44.531Z,60.58
2023-02-28T09:10:11.491Z,60.46
2023-02-28T09:12:38.208Z,60.42
2023-02-28T09:15:05.459Z,60.02
2023-02-28T09:17:32.042Z,59.74
2023-02-28T09:19:59.048Z,60.65
2023-02-28T09:22:25.676Z,60.26
2023-02-28T09:24:52.227Z,59.71
2023-02-28T09:27:18.824Z,58.99
2023-02-28T09:29:45.516Z,59.57
2023-02-28T09:32:12.327Z,59.40
2023-02-28T09:34:39.187Z,58.95
2023-02-28T09:37:06.021Z,59.13
2023-02-28T09:39:32.856Z,58.61
2023-02-28T09:41:59.792Z,59.93
2023-02-28T09:44:48.446Z,59.69
2023-02-28T09:47:34.080Z,58.55
2023-02-28T09:50:09.005Z,59.22
2023-02-28T09:52:35.932Z,58.87
2023-02-28T09:55:28.913Z,58.81
2023-02-28T09:57:57.968Z,60.02
2023-02-28T10:00:32.930Z,59.92
2023-02-28T10:03:26.360Z,60.24
2023-02-28T10:06:00.956Z,60.46
2023-02-28T10:08:37.181Z,59.20
2023-02-28T10:11:08.412Z,58.80
2023-02-28T10:14:12.275Z,59.26
2023-02-28T10:16:52.985Z,59.34
2023-02-28T10:19:33.464Z,59.24
2023-02-28T10:22:04.438Z,59.95
2023-02-28T10:24:36.795Z,59.67
2023-02-28T10:27:22.502Z,58.88
2023-02-28T10:29:52.064Z,58.37
2023-02-28T10:32:21.903Z,59.01
2023-02-28T10:34:56.402Z,59.34
2023-02-28T10:37:23.117Z,58.50
2023-02-28T10:39:50.152Z,58.56
2023-02-28T10:42:26.880Z,58.87
2023-02-28T10:45:17.340Z,59.05
2023-02-28T10:47:56.882Z,58.85
2023-02-28T10:50:31.800Z,58.17
2023-02-28T10:53:14.807Z,58.91
2023-02-28T10:55:41.874Z,59.34
2023-02-28T10:58:25.779Z,58.33
2023-02-28T11:00:53.243Z,58.38
2023-02-28T11:03:34.675Z,58.48
2023-02-28T11:06:09.083Z,58.36
2023-02-28T11:08:45.955Z,58.56
2023-02-28T11:11:12.601Z,57.83
2023-02-28T11:13:39.170Z,57.46
2023-02-28T11:16:08.734Z,57.44
2023-02-28T11:18:54.041Z,57.68
2023-02-28T11:21:24.362Z,57.82
2023-02-28T11:23:53.482Z,57.98
2023-02-28T11:26:41.412Z,58.06
2023-02-28T11:29:24.776Z,57.58
2023-02-28T11:32:14.431Z,57.50
2023-02-28T11:34:42.199Z,57.17
2023-02-28T11:37:15.659Z,56.42
2023-02-28T11:39:43.193Z,56.44
2023-02-28T11:42:40.273Z,57.01
2023-02-28T11:45:28.237Z,57.73
2023-02-28T11:48:10.372Z,57.78
2023-02-28T11:50:48.730Z,57.11
2023-02-28T11:53:26.818Z,57.86
2023-02-28T11:56:12.271Z,57.38
2023-02-28T11:59:05.842Z,57.75
2023-02-28T12:01:47.377Z,57.92
2023-02-28T12:04:46.913Z,57.10
2023-02-28T12:07:42.947Z,57.22
2023-02-28T12:10:23.756Z,57.64
2023-02-28T12:13:08.325Z,57.56
2023-02-28T12:16:09.521Z,56.64
2023-02-28T12:19:00.249Z,57.01
2023-02-28T12:22:00.014Z,55.47
2023-02-28T12:24:42.901Z,56.36
2023-02-28T12:27:14.825Z,55.84
2023-02-28T12:29:50.287Z,55.69
2023-02-28T12:32:22.730Z,56.04
2023-02-28T12:34:56.038Z,56.39
2023-02-28T12:37:29.494Z,56.01
2023-02-28T12:40:06.527Z,55.47
2023-02-28T12:42:38.496Z,54.78
2023-02-28T12:45:41.347Z,55.16
2023-02-28T12:48:14.690Z,54.45
2023-02-28T12:50:42.215Z,53.72
2023-02-28T12:53:36.602Z,53.78
2023-02-28T12:56:09.406Z,54.08
2023-02-28T12:58:40.702Z,54.08
2023-02-28T13:01:29.079Z,53.92
2023-02-28T13:04:33.142Z,53.44
2023-02-28T13:07:11.982Z,53.76
2023-02-28T13:09:40.930Z,53.57
2023-02-28T13:12:16.117Z,52.86
2023-02-28T13:14:43.103Z,53.98
2023-02-28T13:17:15.276Z,54.63
2023-02-28T13:19:43.892Z,53.46
2023-02-28T13:22:20.421Z,52.73
2023-02-28T13:24:49.741Z,53.51
2023-02-28T13:27:16.228Z,54.08
2023-02-28T13:29:45.338Z,53.76
2023-02-28T13:32:11.936Z,54.28
2023-02-28T13:34:42.514Z,53.74
2023-02-28T13:37:25.417Z,53.55
2023-02-28T13:40:08.028Z,53.02
2023-02-28T13:42:38.216Z,53.38
2023-02-28T13:45:04.880Z,53.26
2023-02-28T13:47:37.401Z,52.89
2023-02-28T13:50:22.457Z,52.64
2023-02-28T13:53:17.001Z,52.89
2023-02-28T13:55:59.850Z,52.84
2023-02-28T13:58:53.924Z,52.60
2023-02-28T14:01:52.417Z,51.93
2023-02-28T14:04:45.061Z,52.35
2023-02-28T14:07:20.930Z,52.15
2023-02-28T14:09:56.866Z,52.62
2023-02-28T14:12:51.292Z,52.08
2023-02-28T14:15:43.110Z,52.57
2023-02-28T14:18:32.961Z,52.02
2023-02-28T14:21:10.559Z,51.98
2023-02-28T14:24:03.783Z,52.63
2023-02-28T14:26:47.824Z,51.87
2023-02-28T14:29:26.318Z,52.01
2023-02-28T14:32:02.427Z,52.11
2023-02-28T14:34:34.901Z,51.72
2023-02-28T14:37:04.068Z,52.57
2023-02-28T14:39:32.124Z,51.50
2023-02-28T14:42:05.623Z,50.99
2023-02-28T14:44:32.854Z,51.15
2023-02-28T14:47:07.170Z,50.61
2023-02-28T14:49:42.655Z,50.52
2023-02-28T14:52:24.467Z,50.71
2023-02-28T14:54:56.853Z,50.61
2023-02-28T14:57:33.704Z,50.70
2023-02-28T15:00:21.870Z,50.63
2023-02-28T15:02:48.613Z,51.46
2023-02-28T15:05:18.044Z,50.87
2023-02-28T15:07:46.209Z,50.52
2023-02-28T15:10:20.518Z,50.73
2023-02-28T15:13:15.542Z,50.46
2023-02-28T15:16:01.940Z,50.25
2023-02-28T15:18:46.883Z,50.03
2023-02-28T15:21:18.920Z,50.30
2023-02-28T15:23:51.904Z,50.53
2023-02-28T15:26:21.827Z,49.66
2023-02-28T15:28:53.649Z,48.79
2023-02-28T15:31:26.705Z,49.12
2023-02-28T15:33:56.540Z,49.13
2023-02-28T15:36:28.685Z,49.46
2023-02-28T15:39:01.596Z,48.81
2023-02-28T15:41:41.261Z,48.37
2023-02-28T15:44:27.992Z,48.99
2023-02-28T15:47:02.308Z,49.23
2023-02-28T15:49:33.507Z,49.22
2023-02-28T15:52:02.113Z,48.66
2023-02-28T15:54:33.398Z,49.21
2023-02-28T15:57:09.419Z,49.16
2023-02-28T15:59:37.360Z,48.38
2023-02-28T16:02:10.510Z,48.20
2023-02-28T16:04:38.796Z,48.77
2023-02-28T16:07:07.244Z,48.79
2023-02-28T16:09:35.299Z,48.45
2023-02-28T16:12:03.992Z,47.79
2023-02-28T16:14:31.769Z,47.73
2023-02-28T16:17:05.853Z,47.98
2023-02-28T16:19:34.405Z,48.09
2023-02-28T16:22:02.084Z,48.21
2023-02-28T16:24:29.112Z,48.35
2023-02-28T16:26:57.845Z,48.20
2023-02-28T16:29:28.244Z,48.34
2023-02-28T16:31:54.868Z,47.91
2023-02-28T16:34:21.963Z,47.81
2023-02-28T16:36:50.322Z,47.68
2023-02-28T16:39:17.032Z,48.58
2023-02-28T16:41:46.104Z,48.67
2023-02-28T16:44:27.637Z,47.83
2023-02-28T16:46:54.252Z,49.06
2023-02-28T16:49:21.620Z,48.84
2023-02-28T16:51:48.295Z,48.94
2023-02-28T16:54:14.843Z,49.03
2023-02-28T16:56:45.730Z,49.41
2023-02-28T16:59:13.205Z,49.22
2023-02-28T17:01:40.175Z,49.01
2023-02-28T17:04:06.796Z,49.21
2023-02-28T17:06:33.394Z,48.89
2023-02-28T17:09:00.340Z,48.45
2023-02-28T17:11:28.018Z,48.50
2023-02-28T17:13:54.935Z,49.42
2023-02-28T17:16:31.673Z,49.46
2023-02-28T17:19:01.303Z,48.94
2023-02-28T17:21:28.623Z,48.88
2023-02-28T17:23:55.230Z,49.09
2023-02-28T17:26:25.517Z,48.83
2023-02-28T17:28:53.353Z,49.86
2023-02-28T17:31:20.063Z,49.73
2023-02-28T17:33:46.656Z,49.83
2023-02-28T17:36:23.117Z,49.32
2023-02-28T17:38:50.295Z,49.54
2023-02-28T17:41:17.026Z,49.59
2023-02-28T17:43:43.687Z,50.94
2023-02-28T17:46:21.124Z,50.48
2023-02-28T17:48:48.746Z,49.59
2023-02-28T17:51:16.596Z,50.37
2023-02-28T17:53:43.255Z,50.27
2023-02-28T17:56:15.912Z,51.69
2023-02-28T17:58:42.825Z,51.10
2023-02-28T18:01:09.611Z,50.76
2023-02-28T18:03:36.499Z,51.38
2023-02-28T18:06:03.848Z,51.26
2023-02-28T18:08:31.686Z,51.35
2023-02-28T18:10:58.217Z,51.71
2023-02-28T18:13:24.945Z,51.85
2023-02-28T18:15:51.648Z,51.86
2023-02-28T18:18:18.247Z,51.84
2023-02-28T18:20:44.928Z,51.73
2023-02-28T18:23:11.489Z,51.50
2023-02-28T18:25:40.650Z,51.31
2023-02-28T18:28:07.408Z,50.98
2023-02-28T18:30:37.318Z,52.01
2023-02-28T18:33:04.541Z,52.02
2023-02-28T18:35:35.042Z,52.01
2023-02-28T18:38:12.779Z,52.38
2023-02-28T18:40:39.780Z,53.31
2023-02-28T18:43:06.784Z,52.43
2023-02-28T18:45:36.483Z,52.35
2023-02-28T18:48:03.341Z,52.03
2023-02-28T18:50:29.902Z,52.27
2023-02-28T18:52:57.886Z,52.46
2023-02-28T18:55:24.902Z,52.68
2023-02-28T18:57:51.562Z,52.66
2023-02-28T19:00:22.330Z,52.91
2023-02-28T19:02:52.857Z,53.69
2023-02-28T19:05:20.022Z,53.49
2023-02-28T19:07:46.735Z,53.73
2023-02-28T19:10:13.640Z,52.93
2023-02-28T19:12:42.326Z,53.36
2023-02-28T19:15:10.208Z,53.41
2023-02-28T19:17:37.601Z,54.17
2023-02-28T19:20:05.464Z,54.52
2023-02-28T19:22:32.092Z,54.35
2023-02-28T19:24:58.775Z,54.80
2023-02-28T19:27:25.349Z,54.67
2023-02-28T19:29:52.886Z,54.05
2023-02-28T19:32:21.223Z,54.05
2023-02-28T19:34:47.838Z,54.15
2023-02-28T19:37:14.470Z,53.31
2023-02-28T19:39:44.168Z,52.88
2023-02-28T19:42:13.377Z,53.08
2023-02-28T19:44:40.347Z,53.23
2023-02-28T19:47:07.935Z,52.56
2023-02-28T19:49:34.564Z,53.00
2023-02-28T19:52:01.394Z,53.48
2023-02-28T19:54:27.962Z,53.45
2023-02-28T19:56:57.434Z,53.17
2023-02-28T19:59:36.145Z,53.51
2023-02-28T20:02:06.677Z,53.42
2023-02-28T20:04:33.286Z,53.40
2023-02-28T20:06:59.900Z,53.06
2023-02-28T20:09:31.077Z,53.94
2023-02-28T20:11:59.598Z,53.65
2023-02-28T20:14:26.632Z,53.03
2023-02-28T20:16:53.297Z,53.19
2023-02-28T20:19:19.865Z,53.11
2023-02-28T20:21:46.741Z,53.01
2023-02-28T20:24:13.591Z,53.35
2023-02-28T20:26:40.152Z,53.17
2023-02-28T20:29:08.028Z,53.37
2023-02-28T20:31:37.502Z,53.26
2023-02-28T20:34:05.187Z,53.00
2023-02-28T20:36:32.447Z,53.77
2023-02-28T20:39:00.345Z,53.83
2023-02-28T20:41:27.585Z,53.75
2023-02-28T20:43:55.806Z,54.20
2023-02-28T20:46:22.410Z,53.75
2023-02-28T20:48:49.048Z,53.39
2023-02-28T20:51:16.309Z,53.27
2023-02-28T20:53:43.339Z,53.81
2023-02-28T20:56:16.078Z,53.60
2023-02-28T20:58:44.805Z,53.26
2023-02-28T21:01:26.272Z,53.90
2023-02-28T21:03:54.090Z,53.76
2023-02-28T21:06:23.026Z,54.08
2023-02-28T21:08:50.379Z,54.04
2023-02-28T21:11:24.074Z,54.26
2023-02-28T21:13:51.868Z,53.46
2023-02-28T21:16:21.537Z,54.02
2023-02-28T21:18:48.985Z,53.54
2023-02-28T21:21:17.925Z,54.03
2023-02-28T21:23:46.632Z,53.88
2023-02-28T21:26:19.348Z,53.86
2023-02-28T21:28:53.377Z,53.66
2023-02-28T21:31:21.058Z,53.98
2023-02-28T21:33:47.905Z,53.47
2023-02-28T21:36:17.158Z,54.35
2023-02-28T21:38:44.761Z,54.12
2023-02-28T21:41:14.332Z,54.80
2023-02-28T21:43:41.345Z,54.26
2023-02-28T21:46:14.421Z,54.30
2023-02-28T21:48:41.694Z,54.09
2023-02-28T21:51:14.650Z,54.63
2023-02-28T21:53:42.136Z,54.57
2023-02-28T21:56:17.443Z,55.11
2023-02-28T21:58:44.205Z,54.74
2023-02-28T22:01:16.829Z,54.39
2023-02-28T22:03:44.859Z,54.45
2023-02-28T22:06:14.047Z,54.11
2023-02-28T22:08:42.495Z,54.18
2023-02-28T22:11:10.188Z,54.27
2023-02-28T22:13:37.812Z,54.06
2023-02-28T22:16:09.627Z,53.77
2023-02-28T22:18:36.902Z,53.98
2023-02-28T22:21:04.207Z,53.40
2023-02-28T22:23:31.331Z,53.70
2023-02-28T22:26:01.284Z,54.16
2023-02-28T22:28:30.137Z,53.79
2023-02-28T22:30:58.665Z,54.04
2023-02-28T22:33:26.654Z,54.05
2023-02-28T22:35:53.681Z,53.81
2023-02-28T22:38:20.286Z,54.90
2023-02-28T22:40:46.872Z,55.19
2023-02-28T22:43:13.426Z,55.16
2023-02-28T22:45:41.310Z,54.98
2023-02-28T22:48:09.501Z,55.03
2023-02-28T22:50:36.057Z,55.07
2023-02-28T22:53:02.576Z,55.86
2023-02-28T22:55:29.126Z,54.57
2023-02-28T22:57:55.701Z,54.72
2023-02-28T23:00:22.405Z,54.53
2023-02-28T23:02:48.976Z,53.93
2023-02-28T23:05:15.633Z,54.01
2023-02-28T23:07:43.013Z,54.51
2023-02-28T23:10:14.511Z,54.80
2023-02-28T23:12:50.436Z,54.19
2023-02-28T23:15:18.279Z,54.58
2023-02-28T23:17:45.412Z,54.68
2023-02-28T23:20:18.215Z,54.57
2023-02-28T23:22:46.479Z,54.64
2023-02-28T23:25:14.066Z,54.35
2023-02-28T23:27:40.912Z,53.87
2023-02-28T23:30:08.699Z,54.40
2023-02-28T23:32:35.414Z,54.12
2023-02-28T23:35:02.549Z,54.07
2023-02-28T23:37:29.168Z,54.69
2023-02-28T23:39:55.992Z,54.67
2023-02-28T23:42:22.587Z,54.68
2023-02-28T23:44:49.272Z,54.43
2023-02-28T23:47:16.675Z,54.94
2023-02-28T23:49:43.231Z,54.85
2023-02-28T23:52:10.851Z,54.69
2023-02-28T23:54:37.395Z,54.26
2023-02-28T23:57:04.580Z,54.60
2023-02-28T23:59:31.443Z,54.38
